Time,TemperatureF,DewpointF,PressureIn,WindDirection,WindDirectionDegrees,WindSpeedMPH,WindSpeedGustMPH,Humidity,HourlyPrecipIn,Conditions,Clouds,dailyrainin,SoftwareType,DateUTC
2013-11-12 00:04:00,49.3,24.1,30.08,SSW,208,3.6,3.6,37,0.00,NA,NA,-99.99,VWS Version 10.38,2013-11-12 05:04:00,
2013-11-12 00:09:00,49.3,24.1,30.08,West,270,6.3,6.3,37,0.00,NA,NA,-99.99,VWS Version 10.38,2013-11-12 05:09:00,
2013-11-12 00:14:00,49.3,24.1,30.08,SW,218,3.1,3.1,37,0.00,NA,NA,-99.99,VWS Version 10.38,2013-11-12 05:14:00,
2013-11-12 00:19:00,49.3,24.1,30.08,South,180,3.1,3.1,37,0.00,NA,NA,-99.99,VWS Version 10.38,2013-11-12 05:19:00,
2013-11-12 00:24:00,49.3,24.1,30.05,West,274,0.0,0.0,37,0.00,NA,NA,-99.99,VWS Version 10.38,2013-11-12 05:24:00,
2013-11-12 00:29:00,49.1,24.0,30.05,SW,226,5.4,5.4,37,0.00,NA,NA,-99.99,VWS Version 10.38,2013-11-12 05:29:00,
2013-11-12 00:34:00,49.1,24.0,30.05,South,178,0.0,0.0,37,0.00,NA,NA,-99.99,VWS Version 10.38,2013-11-12 05:34:00,
2013-11-12 00:39:00,49.1,24.0,30.05,SSW,196,0.0,0.0,37,0.00,NA,NA,-99.99,VWS Version 10.38,2013-11-12 05:39:00,
2013-11-12 00:44:00,49.1,24.0,30.05,SW,223,3.1,3.1,37,0.00,NA,NA,-99.99,VWS Version 10.38,2013-11-12 05:44:00,
2013-11-12 00:49:00,49.1,23.3,30.05,SW,220,3.6,3.6,36,0.00,NA,NA,-99.99,VWS Version 10.38,2013-11-12 05:49:00,
2013-11-12 00:54:00,49.1,23.3,30.05,SW,218,0.0,0.0,36,0.00,NA,NA,-99.99,VWS Version 10.38,2013-11-12 05:54:00,
2013-11-12 00:59:00,49.1,23.3,30.05,SSW,203,2.7,2.7,36,0.00,NA,NA,-99.99,VWS Version 10.38,2013-11-12 05:59:00,
2013-11-12 01:04:00,49.1,23.3,30.05,SSW,198,0.0,0.0,36,0.00,NA,NA,-99.99,VWS Version 10.38,2013-11-12 06:04:00,
2013-11-12 01:14:00,48.9,23.2,30.05,WSW,250,0.0,0.0,36,0.00,NA,NA,-99.99,VWS Version 10.38,2013-11-12 06:14:00,
2013-11-12 01:19:00,49.1,23.3,30.05,West,259,6.3,6.3,36,0.00,NA,NA,-99.99,VWS Version 10.38,2013-11-12 06:19:00,
2013-11-12 01:24:00,49.1,22.0,30.05,WSW,257,5.8,5.8,34,0.00,NA,NA,-99.99,VWS Version 10.38,2013-11-12 06:24:00,
2013-11-12 01:29:00,49.1,22.0,30.05,WSW,253,0.0,0.0,34,0.00,NA,NA,-99.99,VWS Version 10.38,2013-11-12 06:29:00,
2013-11-12 01:34:00,49.1,22.0,30.05,WSW,242,3.6,3.6,34,0.00,NA,NA,-99.99,VWS Version 10.38,2013-11-12 06:34:00,
2013-11-12 01:39:00,49.1,21.3,30.05,WSW,247,6.3,6.3,33,0.00,NA,NA,-99.99,VWS Version 10.38,2013-11-12 06:39:00,
2013-11-12 01:49:00,48.9,21.1,30.05,WNW,289,4.9,4.9,33,0.00,NA,NA,-99.99,VWS Version 10.38,2013-11-12 06:49:00,
2013-11-12 01:54:00,48.9,21.1,30.05,NW,316,6.3,6.3,33,0.00,NA,NA,-99.99,VWS Version 10.38,2013-11-12 06:54:00,
2013-11-12 01:59:00,48.9,21.1,30.05,SSW,211,0.0,0.0,33,0.00,NA,NA,-99.99,VWS Version 10.38,2013-11-12 06:59:00,
2013-11-12 02:04:00,48.9,20.4,30.05,NNW,340,0.0,0.0,32,0.00,NA,NA,-99.99,VWS Version 10.38,2013-11-12 07:04:00,
2013-11-12 02:09:00,48.7,20.9,30.05,SW,228,4.0,4.0,33,0.00,NA,NA,-99.99,VWS Version 10.38,2013-11-12 07:09:00,
2013-11-12 02:14:00,48.7,20.9,30.05,SSW,202,0.0,0.0,33,0.00,NA,NA,-99.99,VWS Version 10.38,2013-11-12 07:14:00,
2013-11-12 02:24:00,48.7,20.9,30.05,SW,226,3.1,3.1,33,0.00,NA,NA,-99.99,VWS Version 10.38,2013-11-12 07:24:00,
2013-11-12 02:29:00,48.6,20.8,30.05,South,188,0.0,0.0,33,0.00,NA,NA,-99.99,VWS Version 10.38,2013-11-12 07:29:00,
2013-11-12 02:34:00,48.6,20.8,30.05,SSW,210,0.0,0.0,33,0.00,NA,NA,-99.99,VWS Version 10.38,2013-11-12 07:34:00,
2013-11-12 02:39:00,48.4,20.6,30.05,SSW,200,0.0,0.0,33,0.00,NA,NA,-99.99,VWS Version 10.38,2013-11-12 07:39:00,
2013-11-12 02:44:00,48.4,21.3,30.05,SW,234,0.0,0.0,34,0.00,NA,NA,-99.99,VWS Version 10.38,2013-11-12 07:44:00,
2013-11-12 02:49:00,48.0,21.7,30.05,SW,236,0.0,0.0,35,0.00,NA,NA,-99.99,VWS Version 10.38,2013-11-12 07:49:00,
2013-11-12 02:59:00,47.5,23.2,30.05,SSW,205,0.0,0.0,38,0.00,NA,NA,-99.99,VWS Version 10.38,2013-11-12 07:59:00,
2013-11-12 03:04:00,47.3,23.6,30.05,WSW,249,2.2,2.2,39,0.00,NA,NA,-99.99,VWS Version 10.38,2013-11-12 08:04:00,
2013-11-12 03:09:00,47.1,24.1,30.05,East,81,0.0,0.0,40,0.00,NA,NA,-99.99,VWS Version 10.38,2013-11-12 08:09:00,
2013-11-12 03:14:00,46.9,23.9,30.05,WNW,293,3.1,3.1,40,0.00,NA,NA,-99.99,VWS Version 10.38,2013-11-12 08:14:00,
2013-11-12 03:19:00,46.8,23.7,30.05,NNW,338,3.1,3.1,40,0.00,NA,NA,-99.99,VWS Version 10.38,2013-11-12 08:19:00,
2013-11-12 03:24:00,46.8,24.3,30.05,WNW,300,3.1,3.1,41,0.00,NA,NA,-99.99,VWS Version 10.38,2013-11-12 08:24:00,
2013-11-12 03:29:00,46.6,24.2,30.05,WSW,243,0.0,0.0,41,0.00,NA,NA,-99.99,VWS Version 10.38,2013-11-12 08:29:00,
2013-11-12 03:39:00,46.2,24.4,30.05,WNW,295,0.0,0.0,42,0.00,NA,NA,-99.99,VWS Version 10.38,2013-11-12 08:39:00,
2013-11-12 03:44:00,46.0,24.8,30.05,WSW,249,4.0,4.0,43,0.00,NA,NA,-99.99,VWS Version 10.38,2013-11-12 08:44:00,
2013-11-12 03:49:00,45.9,25.2,30.05,NNE,33,3.6,3.6,44,0.00,NA,NA,-99.99,VWS Version 10.38,2013-11-12 08:49:00,
2013-11-12 03:54:00,45.9,26.3,30.05,West,261,6.3,6.3,46,0.00,NA,NA,-99.99,VWS Version 10.38,2013-11-12 08:54:00,
2013-11-12 03:59:00,45.7,27.1,30.05,NW,317,5.4,5.4,48,0.00,NA,NA,-99.99,VWS Version 10.38,2013-11-12 08:59:00,
2013-11-12 04:04:00,45.5,27.5,30.05,WNW,288,8.3,8.3,49,0.00,NA,NA,-99.99,VWS Version 10.38,2013-11-12 09:04:00,
2013-11-12 04:14:00,45.0,27.9,30.08,WNW,293,5.4,5.4,51,0.00,NA,NA,-99.99,VWS Version 10.38,2013-11-12 09:14:00,
2013-11-12 04:19:00,44.6,27.1,30.08,WSW,250,0.0,0.0,50,0.00,NA,NA,-99.99,VWS Version 10.38,2013-11-12 09:19:00,
2013-11-12 04:24:00,44.4,27.9,30.08,WSW,252,2.7,2.7,52,0.00,NA,NA,-99.99,VWS Version 10.38,2013-11-12 09:24:00,
2013-11-12 04:29:00,44.2,27.7,30.08,NNW,336,2.7,2.7,52,0.00,NA,NA,-99.99,VWS Version 10.38,2013-11-12 09:29:00,
2013-11-12 04:34:00,44.1,28.0,30.08,NW,320,0.0,0.0,53,0.00,NA,NA,-99.99,VWS Version 10.38,2013-11-12 09:34:00,
2013-11-12 04:39:00,43.9,28.8,30.08,WNW,298,3.1,3.1,55,0.00,NA,NA,-99.99,VWS Version 10.38,2013-11-12 09:39:00,
2013-11-12 04:44:00,43.9,30.5,30.08,SSE,164,6.3,6.3,59,0.00,NA,NA,-99.99,VWS Version 10.38,2013-11-12 09:44:00,
2013-11-12 04:54:00,43.2,31.0,30.08,North,0,4.0,4.0,62,0.00,NA,NA,-99.99,VWS Version 10.38,2013-11-12 09:54:00,
2013-11-12 04:59:00,42.8,30.7,30.08,West,265,5.8,5.8,62,0.00,NA,NA,-99.99,VWS Version 10.38,2013-11-12 09:59:00,
2013-11-12 05:04:00,42.6,30.9,30.08,NW,315,3.6,3.6,63,0.00,NA,NA,-99.99,VWS Version 10.38,2013-11-12 10:04:00,
2013-11-12 05:09:00,42.4,31.1,30.08,NW,320,6.3,6.3,64,0.08,NA,NA,-99.99,VWS Version 10.38,2013-11-12 10:09:00,
2013-11-12 05:14:00,41.2,29.9,30.11,NW,309,8.7,8.7,64,0.08,NA,NA,-99.99,VWS Version 10.38,2013-11-12 10:14:00,
2013-11-12 05:19:00,40.5,30.0,30.11,WNW,297,9.6,9.6,66,0.08,NA,NA,-99.99,VWS Version 10.38,2013-11-12 10:19:00,
2013-11-12 05:29:00,38.5,28.5,30.11,NNW,336,0.0,0.0,67,0.08,NA,NA,-99.99,VWS Version 10.38,2013-11-12 10:29:00,
2013-11-12 05:34:00,38.1,28.9,30.11,NNW,342,3.6,3.6,69,0.08,NA,NA,-99.99,VWS Version 10.38,2013-11-12 10:34:00,
2013-11-12 05:39:00,37.6,28.7,30.11,West,276,8.7,8.7,70,0.08,NA,NA,-99.99,VWS Version 10.38,2013-11-12 10:39:00,
2013-11-12 05:44:00,37.0,28.5,30.11,West,261,4.9,4.9,71,0.08,NA,NA,-99.99,VWS Version 10.38,2013-11-12 10:44:00,
2013-11-12 05:49:00,36.9,29.0,30.11,WSW,240,3.6,3.6,73,0.08,NA,NA,-99.99,VWS Version 10.38,2013-11-12 10:49:00,
2013-11-12 05:54:00,36.5,28.7,30.11,NW,312,9.6,9.6,73,0.08,NA,NA,-99.99,VWS Version 10.38,2013-11-12 10:54:00,
2013-11-12 06:04:00,36.0,28.5,30.14,NNW,342,0.0,0.0,74,0.08,NA,NA,-99.99,VWS Version 10.38,2013-11-12 11:04:00,
2013-11-12 06:09:00,35.8,28.3,30.14,NW,321,0.0,0.0,74,0.00,NA,NA,-99.99,VWS Version 10.38,2013-11-12 11:09:00,
2013-11-12 06:14:00,35.8,28.6,30.14,NNW,330,3.6,3.6,75,0.00,NA,NA,-99.99,VWS Version 10.38,2013-11-12 11:14:00,
2013-11-12 06:19:00,35.8,28.6,30.14,NW,313,2.2,2.2,75,0.00,NA,NA,-99.99,VWS Version 10.38,2013-11-12 11:19:00,
2013-11-12 06:24:00,35.8,28.6,30.14,SSW,198,0.0,0.0,75,0.00,NA,NA,-99.99,VWS Version 10.38,2013-11-12 11:24:00,
2013-11-12 06:29:00,35.8,28.6,30.14,NW,312,5.8,5.8,75,0.00,NA,NA,-99.99,VWS Version 10.38,2013-11-12 11:29:00,
2013-11-12 06:39:00,35.8,29.0,30.14,SW,233,3.1,3.1,76,0.00,NA,NA,-99.99,VWS Version 10.38,2013-11-12 11:39:00,
2013-11-12 06:44:00,36.0,29.1,30.14,West,279,3.1,3.1,76,0.00,NA,NA,-99.99,VWS Version 10.38,2013-11-12 11:44:00,
2013-11-12 06:49:00,36.1,29.3,30.14,WNW,288,3.1,3.1,76,0.00,NA,NA,-99.99,VWS Version 10.38,2013-11-12 11:49:00,
2013-11-12 06:54:00,35.8,28.6,30.14,SSE,168,2.7,2.7,75,0.00,NA,NA,-99.99,VWS Version 10.38,2013-11-12 11:54:00,
2013-11-12 06:59:00,35.8,28.6,30.17,NNW,328,3.6,3.6,75,0.00,NA,NA,-99.99,VWS Version 10.38,2013-11-12 11:59:00,
2013-11-12 07:04:00,35.4,28.6,30.17,NW,304,8.1,8.1,76,0.00,NA,NA,-99.99,VWS Version 10.38,2013-11-12 12:04:00,
2013-11-12 07:14:00,34.9,28.1,30.17,West,265,7.2,7.2,76,0.00,NA,NA,-99.99,VWS Version 10.38,2013-11-12 12:14:00,
2013-11-12 07:19:00,34.5,27.8,30.17,WSW,237,5.4,5.4,76,0.00,NA,NA,-99.99,VWS Version 10.38,2013-11-12 12:19:00,
2013-11-12 07:24:00,34.5,27.8,30.17,WNW,300,2.7,2.7,76,0.00,NA,NA,-99.99,VWS Version 10.38,2013-11-12 12:24:00,
2013-11-12 07:29:00,34.5,28.1,30.17,NNW,332,4.0,4.0,77,0.00,NA,NA,-99.99,VWS Version 10.38,2013-11-12 12:29:00,
2013-11-12 07:34:00,34.3,27.9,30.17,NNW,346,0.0,0.0,77,0.00,NA,NA,-99.99,VWS Version 10.38,2013-11-12 12:34:00,
2013-11-12 07:39:00,34.3,27.9,30.17,WNW,287,4.0,4.0,77,0.00,NA,NA,-99.99,VWS Version 10.38,2013-11-12 12:39:00,
2013-11-12 07:44:00,34.3,28.2,30.20,South,191,4.9,4.9,78,0.00,NA,NA,-99.99,VWS Version 10.38,2013-11-12 12:44:00,
2013-11-12 07:50:00,34.2,28.0,30.20,WNW,292,4.0,4.0,78,0.00,NA,NA,-99.99,VWS Version 10.38,2013-11-12 12:50:00,
2013-11-12 07:55:00,34.0,27.9,30.20,WNW,295,10.1,10.1,78,0.00,NA,NA,-99.99,VWS Version 10.38,2013-11-12 12:55:00,
2013-11-12 08:00:00,33.8,27.7,30.20,West,272,2.7,2.7,78,0.00,NA,NA,-99.99,VWS Version 10.38,2013-11-12 13:00:00,
2013-11-12 08:05:00,33.6,27.5,30.20,WNW,287,3.6,3.6,78,0.00,NA,NA,-99.99,VWS Version 10.38,2013-11-12 13:05:00,
2013-11-12 08:10:00,33.6,27.5,30.20,WNW,291,2.7,2.7,78,0.00,NA,NA,-99.99,VWS Version 10.38,2013-11-12 13:10:00,
2013-11-12 08:15:00,33.4,27.0,30.20,NW,312,5.4,5.4,77,0.00,NA,NA,-99.99,VWS Version 10.38,2013-11-12 13:15:00,
2013-11-12 08:25:00,33.1,26.0,30.20,NNW,343,0.0,0.0,75,0.00,NA,NA,-99.99,VWS Version 10.38,2013-11-12 13:25:00,
2013-11-12 08:35:00,33.1,25.7,30.20,West,274,5.4,5.4,74,0.00,NA,NA,-99.99,VWS Version 10.38,2013-11-12 13:35:00,
2013-11-12 08:40:00,32.9,25.5,30.20,WNW,293,3.6,3.6,74,0.00,NA,NA,-99.99,VWS Version 10.38,2013-11-12 13:40:00,
2013-11-12 08:45:00,32.9,25.2,30.23,NNW,340,3.1,3.1,73,0.00,NA,NA,-99.99,VWS Version 10.38,2013-11-12 13:45:00,
2013-11-12 08:50:00,32.7,24.7,30.23,WSW,241,6.3,6.3,72,0.00,NA,NA,-99.99,VWS Version 10.38,2013-11-12 13:50:00,
2013-11-12 08:55:00,32.9,24.9,30.23,West,278,5.4,5.4,72,0.00,NA,NA,-99.99,VWS Version 10.38,2013-11-12 13:55:00,
2013-11-12 09:05:00,32.7,22.3,30.23,South,170,2.7,2.7,65,0.00,NA,NA,-99.99,VWS Version 10.38,2013-11-12 14:05:00,
2013-11-12 09:10:00,32.7,21.5,30.23,SSW,213,0.0,0.0,63,0.00,NA,NA,-99.99,VWS Version 10.38,2013-11-12 14:10:00,
2013-11-12 09:15:00,33.1,22.2,30.23,West,279,4.0,4.0,64,0.00,NA,NA,-99.99,VWS Version 10.38,2013-11-12 14:15:00,
2013-11-12 09:20:00,33.6,23.1,30.23,NW,312,0.0,0.0,65,0.00,NA,NA,-99.99,VWS Version 10.38,2013-11-12 14:20:00,
2013-11-12 09:25:00,33.4,22.6,30.23,WNW,284,3.6,3.6,64,0.00,NA,NA,-99.99,VWS Version 10.38,2013-11-12 14:25:00,
2013-11-12 09:30:00,33.6,22.8,30.20,SW,226,0.0,0.0,64,0.00,NA,NA,-99.99,VWS Version 10.38,2013-11-12 14:30:00,
2013-11-12 09:39:00,34.2,23.3,30.20,West,280,3.1,3.1,64,0.00,NA,NA,-99.99,VWS Version 10.38,2013-11-12 14:39:00,
2013-11-12 09:45:00,34.5,24.0,30.20,NW,318,2.7,2.7,65,0.00,NA,NA,-99.99,VWS Version 10.38,2013-11-12 14:45:00,
2013-11-12 09:54:00,34.9,24.0,30.20,NW,314,2.7,2.7,64,0.00,NA,NA,-99.99,VWS Version 10.38,2013-11-12 14:54:00,
2013-11-12 09:59:00,34.9,23.6,30.20,WNW,291,0.0,0.0,63,0.00,NA,NA,-99.99,VWS Version 10.38,2013-11-12 14:59:00,
2013-11-12 10:04:00,35.2,24.3,30.20,West,280,2.7,2.7,64,0.00,NA,NA,-99.99,VWS Version 10.38,2013-11-12 15:04:00,
2013-11-12 10:14:00,35.2,24.3,30.20,WSW,251,0.0,0.0,64,0.00,NA,NA,-99.99,VWS Version 10.38,2013-11-12 15:14:00,
2013-11-12 10:19:00,35.4,24.5,30.20,SW,236,0.0,0.0,64,0.00,NA,NA,-99.99,VWS Version 10.38,2013-11-12 15:19:00,
2013-11-12 10:24:00,35.2,22.8,30.20,NW,326,2.7,2.7,60,0.00,NA,NA,-99.99,VWS Version 10.38,2013-11-12 15:24:00,
2013-11-12 10:29:00,35.1,21.8,30.20,NNW,341,0.0,0.0,58,0.00,NA,NA,-99.99,VWS Version 10.38,2013-11-12 15:29:00,
2013-11-12 10:34:00,35.1,21.0,30.20,WNW,288,4.0,4.0,56,0.00,NA,NA,-99.99,VWS Version 10.38,2013-11-12 15:34:00,
2013-11-12 10:39:00,35.1,21.0,30.23,SW,223,4.0,4.0,56,0.00,NA,NA,-99.99,VWS Version 10.38,2013-11-12 15:39:00,
2013-11-12 10:44:00,35.1,20.5,30.23,WSW,258,3.1,3.1,55,0.00,NA,NA,-99.99,VWS Version 10.38,2013-11-12 15:44:00,
2013-11-12 10:54:00,35.1,18.3,30.23,West,273,3.1,3.1,50,0.00,NA,NA,-99.99,VWS Version 10.38,2013-11-12 15:54:00,
2013-11-12 10:59:00,35.1,17.4,30.23,West,279,3.1,3.1,48,0.00,NA,NA,-99.99,VWS Version 10.38,2013-11-12 15:59:00,
2013-11-12 11:04:00,35.1,16.9,30.23,NNW,341,3.1,3.1,47,0.00,NA,NA,-99.99,VWS Version 10.38,2013-11-12 16:04:00,
2013-11-12 11:09:00,35.2,17.5,30.23,WSW,252,2.2,2.2,48,0.00,NA,NA,-99.99,VWS Version 10.38,2013-11-12 16:09:00,
2013-11-12 11:14:00,35.6,18.3,30.23,WNW,292,7.6,7.6,49,0.00,NA,NA,-99.99,VWS Version 10.38,2013-11-12 16:14:00,
2013-11-12 11:19:00,35.2,16.0,30.23,West,275,4.0,4.0,45,0.00,NA,NA,-99.99,VWS Version 10.38,2013-11-12 16:19:00,
2013-11-12 11:24:00,35.6,16.9,30.23,West,267,3.6,3.6,46,0.00,NA,NA,-99.99,VWS Version 10.38,2013-11-12 16:24:00,
2013-11-12 11:34:00,35.6,14.8,30.20,West,279,5.8,5.8,42,0.00,NA,NA,-99.99,VWS Version 10.38,2013-11-12 16:34:00,
2013-11-12 11:39:00,36.0,15.1,30.20,North,357,5.8,5.8,42,0.00,NA,NA,-99.99,VWS Version 10.38,2013-11-12 16:39:00,
2013-11-12 11:44:00,36.1,14.7,30.23,NW,324,5.8,5.8,41,0.00,NA,NA,-99.99,VWS Version 10.38,2013-11-12 16:44:00,
2013-11-12 11:49:00,35.8,13.8,30.23,NW,325,6.3,6.3,40,0.00,NA,NA,-99.99,VWS Version 10.38,2013-11-12 16:49:00,
2013-11-12 11:54:00,35.6,13.1,30.23,West,276,3.1,3.1,39,0.00,NA,NA,-99.99,VWS Version 10.38,2013-11-12 16:54:00,
2013-11-12 11:59:00,35.6,13.1,30.23,WSW,252,5.4,5.4,39,0.00,NA,NA,-99.99,VWS Version 10.38,2013-11-12 16:59:00,
2013-11-12 12:09:00,35.6,11.9,30.23,West,280,5.4,5.4,37,0.00,NA,NA,-99.99,VWS Version 10.38,2013-11-12 17:09:00,
2013-11-12 12:14:00,35.6,11.9,30.23,NW,314,5.8,5.8,37,0.00,NA,NA,-99.99,VWS Version 10.38,2013-11-12 17:14:00,
2013-11-12 12:19:00,35.8,10.8,30.23,NNW,329,3.1,3.1,35,0.00,NA,NA,-99.99,VWS Version 10.38,2013-11-12 17:19:00,
2013-11-12 12:24:00,36.1,13.0,30.23,WNW,290,2.7,2.7,38,0.00,NA,NA,-99.99,VWS Version 10.38,2013-11-12 17:24:00,
2013-11-12 12:29:00,36.5,11.5,30.20,West,265,6.3,6.3,35,0.00,NA,NA,-99.99,VWS Version 10.38,2013-11-12 17:29:00,
2013-11-12 12:39:00,35.8,9.5,30.20,NW,320,8.7,8.7,33,0.00,NA,NA,-99.99,VWS Version 10.38,2013-11-12 17:39:00,
2013-11-12 12:44:00,35.8,10.2,30.20,NNE,15,5.4,5.4,34,0.00,NA,NA,-99.99,VWS Version 10.38,2013-11-12 17:44:00,
2013-11-12 12:49:00,36.3,12.6,30.20,WSW,254,4.0,4.0,37,0.00,NA,NA,-99.99,VWS Version 10.38,2013-11-12 17:49:00,
2013-11-12 12:54:00,36.7,11.0,30.20,WNW,286,0.0,0.0,34,0.00,NA,NA,-99.99,VWS Version 10.38,2013-11-12 17:54:00,
2013-11-12 12:59:00,36.9,11.8,30.23,WNW,282,5.4,5.4,35,0.00,NA,NA,-99.99,VWS Version 10.38,2013-11-12 17:59:00,
2013-11-12 13:04:00,37.0,11.3,30.23,West,261,4.0,4.0,34,0.00,NA,NA,-99.99,VWS Version 10.38,2013-11-12 18:04:00,
2013-11-12 13:09:00,37.0,11.9,30.23,WSW,249,2.2,2.2,35,0.00,NA,NA,-99.99,VWS Version 10.38,2013-11-12 18:09:00,
2013-11-12 13:19:00,36.3,10.0,30.20,West,276,5.8,5.8,33,0.00,NA,NA,-99.99,VWS Version 10.38,2013-11-12 18:19:00,
2013-11-12 13:24:00,36.1,9.8,30.20,West,270,4.0,4.0,33,0.00,NA,NA,-99.99,VWS Version 10.38,2013-11-12 18:24:00,
2013-11-12 13:29:00,36.1,9.8,30.23,NW,309,8.3,8.3,33,0.00,NA,NA,-99.99,VWS Version 10.38,2013-11-12 18:29:00,
2013-11-12 13:34:00,35.8,9.5,30.23,North,7,5.4,5.4,33,0.00,NA,NA,-99.99,VWS Version 10.38,2013-11-12 18:34:00,
2013-11-12 13:39:00,35.6,9.4,30.23,WNW,294,3.1,3.1,33,0.00,NA,NA,-99.99,VWS Version 10.38,2013-11-12 18:39:00,
2013-11-12 13:49:00,35.4,9.2,30.23,WNW,294,2.7,2.7,33,0.00,NA,NA,-99.99,VWS Version 10.38,2013-11-12 18:49:00,
2013-11-12 13:54:00,35.2,9.0,30.23,WNW,296,6.3,6.3,33,0.00,NA,NA,-99.99,VWS Version 10.38,2013-11-12 18:54:00,
2013-11-12 13:59:00,35.2,9.0,30.23,West,274,5.8,5.8,33,0.00,NA,NA,-99.99,VWS Version 10.38,2013-11-12 18:59:00,
2013-11-12 14:04:00,35.1,8.9,30.23,WNW,293,3.1,3.1,33,0.00,NA,NA,-99.99,VWS Version 10.38,2013-11-12 19:04:00,
2013-11-12 14:09:00,34.9,8.7,30.23,NNW,346,2.2,2.2,33,0.00,NA,NA,-99.99,VWS Version 10.38,2013-11-12 19:09:00,
2013-11-12 14:14:00,34.9,8.7,30.23,WSW,254,5.8,5.8,33,0.00,NA,NA,-99.99,VWS Version 10.38,2013-11-12 19:14:00,
2013-11-12 14:19:00,34.7,8.6,30.23,NW,306,6.3,6.3,33,0.00,NA,NA,-99.99,VWS Version 10.38,2013-11-12 19:19:00,
2013-11-12 14:29:00,34.3,8.2,30.26,North,353,0.0,0.0,33,0.00,NA,NA,-99.99,VWS Version 10.38,2013-11-12 19:29:00,
2013-11-12 14:34:00,34.2,8.1,30.26,West,280,5.4,5.4,33,0.00,NA,NA,-99.99,VWS Version 10.38,2013-11-12 19:34:00,
2013-11-12 14:39:00,34.3,8.2,30.26,ENE,58,4.0,4.0,33,0.00,NA,NA,-99.99,VWS Version 10.38,2013-11-12 19:39:00,
2013-11-12 14:44:00,34.2,8.1,30.26,NNE,32,6.3,6.3,33,0.00,NA,NA,-99.99,VWS Version 10.38,2013-11-12 19:44:00,
2013-11-12 14:49:00,34.0,7.9,30.26,NNW,334,8.7,8.7,33,0.00,NA,NA,-99.99,VWS Version 10.38,2013-11-12 19:49:00,
2013-11-12 14:54:00,34.2,8.1,30.26,SW,214,5.8,5.8,33,0.00,NA,NA,-99.99,VWS Version 10.38,2013-11-12 19:54:00,
2013-11-12 15:04:00,34.3,8.2,30.26,NW,325,6.7,6.7,33,0.00,NA,NA,-99.99,VWS Version 10.38,2013-11-12 20:04:00,
2013-11-12 15:09:00,34.2,8.7,30.26,NNW,332,0.0,0.0,34,0.00,NA,NA,-99.99,VWS Version 10.38,2013-11-12 20:09:00,
2013-11-12 15:14:00,34.2,8.7,30.26,SSW,209,3.1,3.1,34,0.00,NA,NA,-99.99,VWS Version 10.38,2013-11-12 20:14:00,
2013-11-12 15:19:00,34.0,8.6,30.26,WSW,246,3.1,3.1,34,0.00,NA,NA,-99.99,VWS Version 10.38,2013-11-12 20:19:00,
2013-11-12 15:24:00,33.8,7.8,30.26,NW,312,6.7,6.7,33,0.00,NA,NA,-99.99,VWS Version 10.38,2013-11-12 20:24:00,
2013-11-12 15:29:00,33.6,8.3,30.26,NW,305,5.4,5.4,34,0.00,NA,NA,-99.99,VWS Version 10.38,2013-11-12 20:29:00,
2013-11-12 15:39:00,33.3,7.9,30.26,WSW,243,6.3,6.3,34,0.00,NA,NA,-99.99,VWS Version 10.38,2013-11-12 20:39:00,
2013-11-12 15:44:00,33.1,7.8,30.29,West,273,8.3,8.3,34,0.00,NA,NA,-99.99,VWS Version 10.38,2013-11-12 20:44:00,
2013-11-12 15:49:00,33.1,7.8,30.29,WNW,292,4.0,4.0,34,0.00,NA,NA,-99.99,VWS Version 10.38,2013-11-12 20:49:00,
2013-11-12 15:54:00,33.1,8.4,30.29,West,279,8.1,8.1,35,0.00,NA,NA,-99.99,VWS Version 10.38,2013-11-12 20:54:00,
2013-11-12 15:59:00,33.1,9.1,30.29,WSW,253,3.1,3.1,36,0.00,NA,NA,-99.99,VWS Version 10.38,2013-11-12 20:59:00,
2013-11-12 16:04:00,32.9,8.3,30.29,WSW,249,10.1,10.1,35,0.00,NA,NA,-99.99,VWS Version 10.38,2013-11-12 21:04:00,
2013-11-12 16:14:00,32.5,7.9,30.29,WNW,291,7.6,7.6,35,0.00,NA,NA,-99.99,VWS Version 10.38,2013-11-12 21:14:00,
2013-11-12 16:19:00,32.4,7.8,30.29,NW,314,8.7,8.7,35,0.00,NA,NA,-99.99,VWS Version 10.38,2013-11-12 21:19:00,
2013-11-12 16:24:00,32.2,7.6,30.29,NW,317,5.8,5.8,35,0.00,NA,NA,-99.99,VWS Version 10.38,2013-11-12 21:24:00,
2013-11-12 16:29:00,32.0,7.5,30.29,NW,323,3.1,3.1,35,0.00,NA,NA,-99.99,VWS Version 10.38,2013-11-12 21:29:00,
2013-11-12 16:34:00,32.0,7.5,30.29,WNW,285,7.2,7.2,35,0.00,NA,NA,-99.99,VWS Version 10.38,2013-11-12 21:34:00,
2013-11-12 16:39:00,32.0,8.1,30.29,WNW,286,5.4,5.4,36,0.00,NA,NA,-99.99,VWS Version 10.38,2013-11-12 21:39:00,
2013-11-12 16:45:00,31.8,8.5,30.29,West,273,4.9,4.9,37,0.00,NA,NA,-99.99,VWS Version 10.38,2013-11-12 21:45:00,
2013-11-12 16:55:00,31.8,7.9,30.29,WNW,297,8.3,8.3,36,0.00,NA,NA,-99.99,VWS Version 10.38,2013-11-12 21:55:00,
2013-11-12 17:00:00,31.6,7.8,30.29,NNW,337,4.0,4.0,36,0.00,NA,NA,-99.99,VWS Version 10.38,2013-11-12 22:00:00,
2013-11-12 17:05:00,31.6,8.4,30.29,West,259,2.2,2.2,37,0.00,NA,NA,-99.99,VWS Version 10.38,2013-11-12 22:05:00,
2013-11-12 17:10:00,31.6,9.0,30.29,West,273,2.7,2.7,38,0.00,NA,NA,-99.99,VWS Version 10.38,2013-11-12 22:10:00,
2013-11-12 17:20:00,31.3,8.0,30.29,NW,309,3.1,3.1,37,0.00,NA,NA,-99.99,VWS Version 10.38,2013-11-12 22:20:00,
2013-11-12 17:25:00,31.3,8.6,30.29,West,273,5.8,5.8,38,0.00,NA,NA,-99.99,VWS Version 10.38,2013-11-12 22:25:00,
2013-11-12 17:30:00,31.1,8.5,30.32,NW,314,6.3,6.3,38,0.00,NA,NA,-99.99,VWS Version 10.38,2013-11-12 22:30:00,
2013-11-12 17:35:00,31.1,8.5,30.32,NW,312,4.9,4.9,38,0.00,NA,NA,-99.99,VWS Version 10.38,2013-11-12 22:35:00,
2013-11-12 17:40:00,31.1,8.5,30.32,WNW,303,3.6,3.6,38,0.00,NA,NA,-99.99,VWS Version 10.38,2013-11-12 22:40:00,
2013-11-12 17:45:00,31.1,8.5,30.32,West,259,6.3,6.3,38,0.00,NA,NA,-99.99,VWS Version 10.38,2013-11-12 22:45:00,
2013-11-12 17:50:00,31.1,8.5,30.32,SW,218,5.8,5.8,38,0.00,NA,NA,-99.99,VWS Version 10.38,2013-11-12 22:50:00,
2013-11-12 18:00:00,30.9,7.1,30.32,West,281,6.3,6.3,36,0.00,NA,NA,-99.99,VWS Version 10.38,2013-11-12 23:00:00,
2013-11-12 18:05:00,30.9,7.7,30.32,NW,317,8.7,8.7,37,0.00,NA,NA,-99.99,VWS Version 10.38,2013-11-12 23:05:00,
2013-11-12 18:10:00,30.9,7.1,30.32,WNW,296,8.3,8.3,36,0.00,NA,NA,-99.99,VWS Version 10.38,2013-11-12 23:10:00,
2013-11-12 18:15:00,30.9,7.1,30.32,WNW,293,8.1,8.1,36,0.00,NA,NA,-99.99,VWS Version 10.38,2013-11-12 23:15:00,
2013-11-12 18:20:00,30.9,8.3,30.32,WNW,288,4.0,4.0,38,0.00,NA,NA,-99.99,VWS Version 10.38,2013-11-12 23:20:00,
2013-11-12 18:30:00,30.6,8.0,30.32,WNW,287,3.6,3.6,38,0.00,NA,NA,-99.99,VWS Version 10.38,2013-11-12 23:30:00,
2013-11-12 18:39:00,30.6,7.4,30.32,WSW,246,4.9,4.9,37,0.00,NA,NA,-99.99,VWS Version 10.38,2013-11-12 23:39:00,
2013-11-12 18:44:00,30.6,8.0,30.32,West,259,4.0,4.0,38,0.00,NA,NA,-99.99,VWS Version 10.38,2013-11-12 23:44:00,
2013-11-12 18:49:00,30.4,7.8,30.32,ENE,72,11.0,11.0,38,0.00,NA,NA,-99.99,VWS Version 10.38,2013-11-12 23:49:00,
2013-11-12 18:54:00,30.4,7.8,30.32,SSW,212,5.4,5.4,38,0.00,NA,NA,-99.99,VWS Version 10.38,2013-11-12 23:54:00,
2013-11-12 18:59:00,30.4,7.8,30.32,WNW,283,5.8,5.8,38,0.00,NA,NA,-99.99,VWS Version 10.38,2013-11-12 23:59:00,
2013-11-12 19:09:00,30.2,7.7,30.32,SW,223,5.8,5.8,38,0.00,NA,NA,-99.99,VWS Version 10.38,2013-11-13 00:09:00,
2013-11-12 19:14:00,30.2,8.2,30.32,NW,324,5.8,5.8,39,0.00,NA,NA,-99.99,VWS Version 10.38,2013-11-13 00:14:00,
2013-11-12 19:19:00,29.8,8.5,30.32,WNW,298,6.3,6.3,40,0.00,NA,NA,-99.99,VWS Version 10.38,2013-11-13 00:19:00,
2013-11-12 19:24:00,29.7,7.8,30.32,West,277,4.9,4.9,39,0.00,NA,NA,-99.99,VWS Version 10.38,2013-11-13 00:24:00,
2013-11-12 19:29:00,29.5,8.1,30.35,NW,307,6.3,6.3,40,0.00,NA,NA,-99.99,VWS Version 10.38,2013-11-13 00:29:00,
2013-11-12 19:34:00,29.3,8.0,30.35,WNW,297,10.1,10.1,40,0.00,NA,NA,-99.99,VWS Version 10.38,2013-11-13 00:34:00,
2013-11-12 19:39:00,29.1,7.8,30.35,North,353,4.0,4.0,40,0.00,NA,NA,-99.99,VWS Version 10.38,2013-11-13 00:39:00,
2013-11-12 19:44:00,28.8,7.5,30.35,West,271,7.6,7.6,40,0.00,NA,NA,-99.99,VWS Version 10.38,2013-11-13 00:44:00,
2013-11-12 19:49:00,28.6,7.3,30.35,SSW,202,5.4,5.4,40,0.00,NA,NA,-99.99,VWS Version 10.38,2013-11-13 00:49:00,
2013-11-12 19:54:00,28.6,7.3,30.35,WNW,284,5.8,5.8,40,0.00,NA,NA,-99.99,VWS Version 10.38,2013-11-13 00:54:00,
2013-11-12 19:59:00,28.6,7.3,30.35,NW,324,3.6,3.6,40,0.00,NA,NA,-99.99,VWS Version 10.38,2013-11-13 00:59:00,
2013-11-12 20:09:00,28.4,7.2,30.35,West,271,8.3,8.3,40,0.00,NA,NA,-99.99,VWS Version 10.38,2013-11-13 01:09:00,
2013-11-12 20:14:00,28.4,7.7,30.35,WNW,288,5.4,5.4,41,0.00,NA,NA,-99.99,VWS Version 10.38,2013-11-13 01:14:00,
2013-11-12 20:19:00,28.2,7.6,30.35,WNW,283,11.0,11.0,41,0.00,NA,NA,-99.99,VWS Version 10.38,2013-11-13 01:19:00,
2013-11-12 20:24:00,28.2,7.6,30.35,West,262,7.6,7.6,41,0.00,NA,NA,-99.99,VWS Version 10.38,2013-11-13 01:24:00,
2013-11-12 20:29:00,28.2,7.6,30.35,WNW,298,8.1,8.1,41,0.00,NA,NA,-99.99,VWS Version 10.38,2013-11-13 01:29:00,
2013-11-12 20:34:00,28.2,6.4,30.35,SW,233,4.9,4.9,39,0.00,NA,NA,-99.99,VWS Version 10.38,2013-11-13 01:34:00,
2013-11-12 20:39:00,28.2,7.0,30.35,WSW,254,2.7,2.7,40,0.00,NA,NA,-99.99,VWS Version 10.38,2013-11-13 01:39:00,
2013-11-12 20:49:00,28.0,6.8,30.35,WNW,284,4.5,4.5,40,0.00,NA,NA,-99.99,VWS Version 10.38,2013-11-13 01:49:00,
2013-11-12 20:54:00,28.0,6.3,30.35,WSW,247,3.6,3.6,39,0.00,NA,NA,-99.99,VWS Version 10.38,2013-11-13 01:54:00,
2013-11-12 20:59:00,28.0,6.3,30.35,West,280,4.0,4.0,39,0.00,NA,NA,-99.99,VWS Version 10.38,2013-11-13 01:59:00,
2013-11-12 21:04:00,28.2,5.9,30.35,WSW,243,0.0,0.0,38,0.00,NA,NA,-99.99,VWS Version 10.38,2013-11-13 02:04:00,
2013-11-12 21:09:00,28.0,5.7,30.35,WNW,288,0.0,0.0,38,0.00,NA,NA,-99.99,VWS Version 10.38,2013-11-13 02:09:00,
2013-11-12 21:14:00,27.9,5.6,30.35,WNW,303,0.0,0.0,38,0.00,NA,NA,-99.99,VWS Version 10.38,2013-11-13 02:14:00,
2013-11-12 21:24:00,27.7,6.0,30.35,WSW,247,0.0,0.0,39,0.00,NA,NA,-99.99,VWS Version 10.38,2013-11-13 02:24:00,
2013-11-12 21:29:00,27.5,6.4,30.35,WSW,243,0.0,0.0,40,0.00,NA,NA,-99.99,VWS Version 10.38,2013-11-13 02:29:00,
2013-11-12 21:34:00,27.5,6.4,30.35,SW,235,2.7,2.7,40,0.00,NA,NA,-99.99,VWS Version 10.38,2013-11-13 02:34:00,
2013-11-12 21:39:00,27.3,6.2,30.35,WNW,302,2.7,2.7,40,0.00,NA,NA,-99.99,VWS Version 10.38,2013-11-13 02:39:00,
2013-11-12 21:44:00,27.1,5.5,30.35,WNW,303,2.7,2.7,39,0.00,NA,NA,-99.99,VWS Version 10.38,2013-11-13 02:44:00,
2013-11-12 21:54:00,27.0,6.4,30.35,West,268,5.8,5.8,41,0.00,NA,NA,-99.99,VWS Version 10.38,2013-11-13 02:54:00,
2013-11-12 21:59:00,27.0,6.4,30.38,ESE,120,0.0,0.0,41,0.00,NA,NA,-99.99,VWS Version 10.38,2013-11-13 02:59:00,
2013-11-12 22:04:00,27.0,6.4,30.38,West,276,3.6,3.6,41,0.00,NA,NA,-99.99,VWS Version 10.38,2013-11-13 03:04:00,
2013-11-12 22:14:00,27.0,6.9,30.38,WNW,298,3.6,3.6,42,0.00,NA,NA,-99.99,VWS Version 10.38,2013-11-13 03:14:00,
2013-11-12 22:19:00,27.0,6.9,30.38,West,266,6.7,6.7,42,0.00,NA,NA,-99.99,VWS Version 10.38,2013-11-13 03:19:00,
2013-11-12 22:24:00,27.0,6.9,30.38,WSW,253,4.9,4.9,42,0.00,NA,NA,-99.99,VWS Version 10.38,2013-11-13 03:24:00,
2013-11-12 22:34:00,27.0,6.9,30.38,WNW,293,5.4,5.4,42,0.00,NA,NA,-99.99,VWS Version 10.38,2013-11-13 03:34:00,
2013-11-12 22:39:00,27.0,6.9,30.38,West,265,6.3,6.3,42,0.00,NA,NA,-99.99,VWS Version 10.38,2013-11-13 03:39:00,
2013-11-12 22:44:00,27.0,7.5,30.35,WSW,245,6.3,6.3,43,0.00,NA,NA,-99.99,VWS Version 10.38,2013-11-13 03:44:00,
2013-11-12 22:49:00,26.8,7.3,30.35,WSW,252,4.0,4.0,43,0.00,NA,NA,-99.99,VWS Version 10.38,2013-11-13 03:49:00,
2013-11-12 22:54:00,26.6,7.1,30.35,NW,312,0.0,0.0,43,0.00,NA,NA,-99.99,VWS Version 10.38,2013-11-13 03:54:00,
2013-11-12 22:59:00,26.4,7.5,30.35,NW,314,5.4,5.4,44,0.00,NA,NA,-99.99,VWS Version 10.38,2013-11-13 03:59:00,
2013-11-12 23:09:00,26.4,7.5,30.35,WNW,283,4.0,4.0,44,0.00,NA,NA,-99.99,VWS Version 10.38,2013-11-13 04:09:00,
2013-11-12 23:14:00,26.2,7.3,30.38,West,279,0.0,0.0,44,0.00,NA,NA,-99.99,VWS Version 10.38,2013-11-13 04:14:00,
2013-11-12 23:19:00,26.1,7.2,30.38,NW,326,0.0,0.0,44,0.00,NA,NA,-99.99,VWS Version 10.38,2013-11-13 04:19:00,
2013-11-12 23:24:00,26.1,7.6,30.38,WNW,296,0.0,0.0,45,0.00,NA,NA,-99.99,VWS Version 10.38,2013-11-13 04:24:00,
2013-11-12 23:29:00,25.9,7.5,30.38,WNW,298,0.0,0.0,45,0.00,NA,NA,-99.99,VWS Version 10.38,2013-11-13 04:29:00,
2013-11-12 23:34:00,25.7,7.3,30.38,WNW,298,0.0,0.0,45,0.00,NA,NA,-99.99,VWS Version 10.38,2013-11-13 04:34:00,
2013-11-12 23:44:00,25.0,7.1,30.38,WNW,298,0.0,0.0,46,0.00,NA,NA,-99.99,VWS Version 10.38,2013-11-13 04:44:00,
2013-11-12 23:49:00,24.6,7.3,30.38,WNW,298,0.0,0.0,47,0.00,NA,NA,-99.99,VWS Version 10.38,2013-11-13 04:49:00,
2013-11-12 23:54:00,24.3,7.4,30.38,WNW,298,0.0,0.0,48,0.00,NA,NA,-99.99,VWS Version 10.38,2013-11-13 04:54:00,
2013-11-12 23:59:00,23.9,7.5,30.38,WNW,298,0.0,0.0,49,0.00,NA,NA,-99.99,VWS Version 10.38,2013-11-13 04:59:00,